sensor_id;sensor_type;location;lat;lon;timestamp;pressure;altitude;pressure_sealevel;temperature;humidity
11395;BME280;5753;54.402;10.220;2023-02-02T00:01:54;100876.97;;;11.11;67.85
11395;BME280;5753;54.402;10.220;2023-02-02T00:04:28;100869.00;;;11.56;65.16
11395;BME280;5753;54.402;10.220;2023-02-02T00:06:55;100878.44;;;10.92;70.05
11395;BME280;5753;54.402;10.220;2023-02-02T00:09:22;100887.69;;;11.38;64.19
11395;BME280;5753;54.402;10.220;2023-02-02T00:11:49;100894.47;;;11.31;65.08
11395;BME280;5753;54.402;10.220;2023-02-02T00:14:16;100900.88;;;11.59;63.15
11395;BME280;5753;54.402;10.220;2023-02-02T00:16:51;100902.66;;;11.03;65.55
11395;BME280;5753;54.402;10.220;2023-02-02T00:19:36;100900.81;;;11.55;63.68
11395;BME280;5753;54.402;10.220;2023-02-02T00:22:02;100905.00;;;11.47;64.45
11395;BME280;5753;54.402;10.220;2023-02-02T00:24:28;100899.72;;;10.80;65.57
11395;BME280;5753;54.402;10.220;2023-02-02T00:26:56;100916.44;;;11.05;63.98
11395;BME280;5753;54.402;10.220;2023-02-02T00:29:28;100917.59;;;10.69;66.45
11395;BME280;5753;54.402;10.220;2023-02-02T00:31:55;100941.50;;;10.59;66.56
11395;BME280;5753;54.402;10.220;2023-02-02T00:34:22;100932.56;;;11.48;64.16
11395;BME280;5753;54.402;10.220;2023-02-02T00:36:49;100940.88;;;11.28;63.78
11395;BME280;5753;54.402;10.220;2023-02-02T00:39:22;100944.56;;;11.46;62.41
11395;BME280;5753;54.402;10.220;2023-02-02T00:41:51;100951.81;;;11.74;61.48
11395;BME280;5753;54.402;10.220;2023-02-02T00:44:17;100954.06;;;11.48;62.85
11395;BME280;5753;54.402;10.220;2023-02-02T00:47:02;100960.53;;;11.79;61.45
11395;BME280;5753;54.402;10.220;2023-02-02T00:49:29;100970.28;;;10.85;63.73
11395;BME280;5753;54.402;10.220;2023-02-02T00:51:55;100971.72;;;12.52;59.31
11395;BME280;5753;54.402;10.220;2023-02-02T00:54:21;100971.75;;;11.81;61.15
11395;BME280;5753;54.402;10.220;2023-02-02T00:56:47;100973.31;;;12.40;58.42
11395;BME280;5753;54.402;10.220;2023-02-02T00:59:13;100982.06;;;11.81;59.80
11395;BME280;5753;54.402;10.220;2023-02-02T01:01:39;100994.47;;;10.92;62.84
11395;BME280;5753;54.402;10.220;2023-02-02T01:04:06;100999.66;;;11.48;60.12
11395;BME280;5753;54.402;10.220;2023-02-02T01:06:32;100994.59;;;10.99;62.07
11395;BME280;5753;54.402;10.220;2023-02-02T01:08:58;100999.13;;;11.14;60.77
11395;BME280;5753;54.402;10.220;2023-02-02T01:11:24;100999.63;;;12.85;56.28
11395;BME280;5753;54.402;10.220;2023-02-02T01:13:51;101012.44;;;10.40;62.18
11395;BME280;5753;54.402;10.220;2023-02-02T01:16:17;101010.03;;;11.51;59.06
11395;BME280;5753;54.402;10.220;2023-02-02T01:18:43;101012.38;;;11.91;58.47
11395;BME280;5753;54.402;10.220;2023-02-02T01:21:11;101016.97;;;11.55;58.21
11395;BME280;5753;54.402;10.220;2023-02-02T01:23:38;101017.63;;;11.99;57.22
11395;BME280;5753;54.402;10.220;2023-02-02T01:26:07;101024.78;;;11.59;58.87
11395;BME280;5753;54.402;10.220;2023-02-02T01:28:34;101027.19;;;12.06;55.83
11395;BME280;5753;54.402;10.220;2023-02-02T01:31:23;101024.94;;;11.14;57.25
11395;BME280;5753;54.402;10.220;2023-02-02T01:33:50;101034.41;;;11.15;58.23
11395;BME280;5753;54.402;10.220;2023-02-02T01:36:19;101038.78;;;12.37;53.70
11395;BME280;5753;54.402;10.220;2023-02-02T01:38:46;101040.34;;;11.11;56.61
11395;BME280;5753;54.402;10.220;2023-02-02T01:41:21;101034.19;;;11.01;55.90
11395;BME280;5753;54.402;10.220;2023-02-02T01:43:55;101042.81;;;11.56;54.30
11395;BME280;5753;54.402;10.220;2023-02-02T01:46:30;101045.38;;;11.55;54.35
11395;BME280;5753;54.402;10.220;2023-02-02T01:49:11;101050.88;;;11.78;53.77
11395;BME280;5753;54.402;10.220;2023-02-02T01:51:42;101056.38;;;11.99;51.62
11395;BME280;5753;54.402;10.220;2023-02-02T01:54:17;101059.19;;;12.19;52.52
11395;BME280;5753;54.402;10.220;2023-02-02T01:56:49;101067.03;;;12.25;52.51
11395;BME280;5753;54.402;10.220;2023-02-02T01:59:17;101071.81;;;11.94;52.63
11395;BME280;5753;54.402;10.220;2023-02-02T02:01:46;101082.13;;;11.39;54.11
11395;BME280;5753;54.402;10.220;2023-02-02T02:04:13;101084.59;;;10.40;55.20
11395;BME280;5753;54.402;10.220;2023-02-02T02:06:40;101086.41;;;10.90;54.76
11395;BME280;5753;54.402;10.220;2023-02-02T02:09:08;101087.69;;;12.98;49.87
11395;BME280;5753;54.402;10.220;2023-02-02T02:11:35;101093.44;;;12.03;51.55
11395;BME280;5753;54.402;10.220;2023-02-02T02:14:06;101095.00;;;11.91;51.21
11395;BME280;5753;54.402;10.220;2023-02-02T02:35:06;101131.31;;;11.49;53.89
11395;BME280;5753;54.402;10.220;2023-02-02T02:37:17;101121.78;;;10.97;55.54
11395;BME280;5753;54.402;10.220;2023-02-02T02:42:21;101129.34;;;12.46;51.86
11395;BME280;5753;54.402;10.220;2023-02-02T02:44:49;101144.00;;;11.35;54.48
11395;BME280;5753;54.402;10.220;2023-02-02T02:47:17;101140.00;;;12.06;53.34
11395;BME280;5753;54.402;10.220;2023-02-02T02:49:48;101149.97;;;12.42;52.05
11395;BME280;5753;54.402;10.220;2023-02-02T02:52:15;101147.88;;;12.16;53.25
11395;BME280;5753;54.402;10.220;2023-02-02T02:54:45;101138.31;;;12.76;51.34
11395;BME280;5753;54.402;10.220;2023-02-02T03:09:00;101164.47;;;12.99;51.03
11395;BME280;5753;54.402;10.220;2023-02-02T03:11:28;101177.19;;;13.58;48.83
11395;BME280;5753;54.402;10.220;2023-02-02T03:13:55;101177.28;;;12.23;50.78
11395;BME280;5753;54.402;10.220;2023-02-02T03:16:21;101188.19;;;12.04;51.71
11395;BME280;5753;54.402;10.220;2023-02-02T03:18:48;101189.09;;;12.69;50.81
11395;BME280;5753;54.402;10.220;2023-02-02T03:21:14;101197.91;;;11.68;51.91
11395;BME280;5753;54.402;10.220;2023-02-02T03:23:40;101188.53;;;12.28;51.34
11395;BME280;5753;54.402;10.220;2023-02-02T03:26:06;101195.44;;;12.29;50.59
11395;BME280;5753;54.402;10.220;2023-02-02T03:28:33;101195.88;;;12.59;50.00
11395;BME280;5753;54.402;10.220;2023-02-02T03:31:00;101195.31;;;13.58;47.62
11395;BME280;5753;54.402;10.220;2023-02-02T03:33:27;101196.91;;;12.12;50.62
11395;BME280;5753;54.402;10.220;2023-02-02T03:35:56;101203.91;;;13.55;48.00
11395;BME280;5753;54.402;10.220;2023-02-02T03:38:22;101204.81;;;12.83;49.74
11395;BME280;5753;54.402;10.220;2023-02-02T03:40:50;101213.63;;;12.32;50.83
11395;BME280;5753;54.402;10.220;2023-02-02T03:43:20;101233.41;;;11.80;51.93
11395;BME280;5753;54.402;10.220;2023-02-02T03:45:47;101237.78;;;12.36;51.38
11395;BME280;5753;54.402;10.220;2023-02-02T03:48:13;101228.34;;;11.83;52.95
11395;BME280;5753;54.402;10.220;2023-02-02T03:50:39;101237.47;;;12.16;51.88
11395;BME280;5753;54.402;10.220;2023-02-02T03:53:05;101244.88;;;11.04;54.25
11395;BME280;5753;54.402;10.220;2023-02-02T03:55:31;101245.91;;;12.06;51.90
11395;BME280;5753;54.402;10.220;2023-02-02T03:57:57;101251.16;;;12.10;52.45
11395;BME280;5753;54.402;10.220;2023-02-02T04:00:24;101242.84;;;12.90;50.72
11395;BME280;5753;54.402;10.220;2023-02-02T04:02:50;101242.78;;;13.57;50.10
11395;BME280;5753;54.402;10.220;2023-02-02T04:05:17;101249.47;;;13.35;50.16
11395;BME280;5753;54.402;10.220;2023-02-02T04:07:43;101250.13;;;13.18;50.90
11395;BME280;5753;54.402;10.220;2023-02-02T04:10:09;101266.56;;;12.58;51.73
11395;BME280;5753;54.402;10.220;2023-02-02T04:12:36;101273.59;;;12.69;52.39
11395;BME280;5753;54.402;10.220;2023-02-02T04:15:02;101271.16;;;13.46;50.17
11395;BME280;5753;54.402;10.220;2023-02-02T04:17:28;101285.81;;;11.76;54.88
11395;BME280;5753;54.402;10.220;2023-02-02T04:19:54;101282.69;;;11.91;53.65
11395;BME280;5753;54.402;10.220;2023-02-02T04:22:24;101279.41;;;12.00;53.95
11395;BME280;5753;54.402;10.220;2023-02-02T04:24:50;101289.38;;;10.94;57.12
11395;BME280;5753;54.402;10.220;2023-02-02T04:27:17;101294.38;;;11.74;55.99
11395;BME280;5753;54.402;10.220;2023-02-02T04:29:43;101299.88;;;11.89;56.13
11395;BME280;5753;54.402;10.220;2023-02-02T04:32:09;101295.47;;;11.40;57.16
11395;BME280;5753;54.402;10.220;2023-02-02T04:34:35;101295.19;;;11.70;56.36
11395;BME280;5753;54.402;10.220;2023-02-02T04:37:01;101298.75;;;13.44;52.31
11395;BME280;5753;54.402;10.220;2023-02-02T04:39:27;101299.19;;;12.50;53.23
11395;BME280;5753;54.402;10.220;2023-02-02T04:41:55;101302.78;;;12.61;53.32
11395;BME280;5753;54.402;10.220;2023-02-02T04:44:22;101309.34;;;12.97;51.84
11395;BME280;5753;54.402;10.220;2023-02-02T04:46:48;101311.25;;;13.81;50.17
11395;BME280;5753;54.402;10.220;2023-02-02T04:49:14;101309.81;;;13.29;51.57
11395;BME280;5753;54.402;10.220;2023-02-02T04:51:41;101317.66;;;13.37;51.23
11395;BME280;5753;54.402;10.220;2023-02-02T04:54:07;101311.75;;;14.36;49.46
11395;BME280;5753;54.402;10.220;2023-02-02T04:56:34;101314.97;;;12.69;52.77
11395;BME280;5753;54.402;10.220;2023-02-02T04:59:00;101320.59;;;11.90;55.89
11395;BME280;5753;54.402;10.220;2023-02-02T05:01:26;101317.81;;;14.35;49.98
11395;BME280;5753;54.402;10.220;2023-02-02T05:03:54;101325.09;;;13.83;51.04
11395;BME280;5753;54.402;10.220;2023-02-02T05:06:20;101327.72;;;13.86;50.20
11395;BME280;5753;54.402;10.220;2023-02-02T05:08:47;101336.84;;;11.85;55.09
11395;BME280;5753;54.402;10.220;2023-02-02T05:11:18;101332.88;;;13.15;51.92
11395;BME280;5753;54.402;10.220;2023-02-02T05:13:47;101336.59;;;13.33;52.47
11395;BME280;5753;54.402;10.220;2023-02-02T05:16:14;101345.53;;;12.38;53.84
11395;BME280;5753;54.402;10.220;2023-02-02T05:18:41;101354.41;;;12.55;54.40
11395;BME280;5753;54.402;10.220;2023-02-02T05:21:08;101340.75;;;13.21;52.68
11395;BME280;5753;54.402;10.220;2023-02-02T05:23:34;101350.81;;;12.44;53.12
11395;BME280;5753;54.402;10.220;2023-02-02T05:26:00;101344.41;;;12.77;53.40
11395;BME280;5753;54.402;10.220;2023-02-02T05:28:26;101358.50;;;12.97;52.66
11395;BME280;5753;54.402;10.220;2023-02-02T05:30:54;101342.16;;;13.66;51.25
11395;BME280;5753;54.402;10.220;2023-02-02T05:33:20;101351.28;;;13.32;52.41
11395;BME280;5753;54.402;10.220;2023-02-02T05:35:47;101350.09;;;12.05;55.25
11395;BME280;5753;54.402;10.220;2023-02-02T05:38:14;101359.28;;;13.52;52.41
11395;BME280;5753;54.402;10.220;2023-02-02T05:40:41;101365.00;;;12.71;54.27
11395;BME280;5753;54.402;10.220;2023-02-02T05:43:07;101370.53;;;12.92;54.11
11395;BME280;5753;54.402;10.220;2023-02-02T05:45:34;101363.19;;;13.22;52.84
11395;BME280;5753;54.402;10.220;2023-02-02T05:48:00;101365.66;;;13.16;53.39
11395;BME280;5753;54.402;10.220;2023-02-02T05:50:26;101375.19;;;12.60;54.79
11395;BME280;5753;54.402;10.220;2023-02-02T05:52:52;101383.66;;;12.51;56.02
11395;BME280;5753;54.402;10.220;2023-02-02T05:55:18;101379.78;;;13.34;53.79
11395;BME280;5753;54.402;10.220;2023-02-02T05:57:45;101387.38;;;11.75;57.32
11395;BME280;5753;54.402;10.220;2023-02-02T06:00:11;101407.56;;;11.91;57.83
11395;BME280;5753;54.402;10.220;2023-02-02T06:02:38;101406.28;;;12.15;56.69
11395;BME280;5753;54.402;10.220;2023-02-02T06:05:04;101409.88;;;12.74;56.71
11395;BME280;5753;54.402;10.220;2023-02-02T06:07:30;101412.94;;;11.61;59.99
11395;BME280;5753;54.402;10.220;2023-02-02T06:09:56;101416.94;;;12.32;58.65
11395;BME280;5753;54.402;10.220;2023-02-02T06:12:23;101413.88;;;11.65;59.47
11395;BME280;5753;54.402;10.220;2023-02-02T06:14:49;101417.44;;;12.14;58.31
11395;BME280;5753;54.402;10.220;2023-02-02T06:17:15;101429.34;;;12.06;59.07
11395;BME280;5753;54.402;10.220;2023-02-02T06:19:41;101431.06;;;11.64;61.11
11395;BME280;5753;54.402;10.220;2023-02-02T06:22:07;101437.09;;;12.04;59.07
11395;BME280;5753;54.402;10.220;2023-02-02T06:24:34;101429.41;;;11.27;61.71
11395;BME280;5753;54.402;10.220;2023-02-02T06:27:00;101431.56;;;12.31;57.73
11395;BME280;5753;54.402;10.220;2023-02-02T06:29:26;101425.41;;;12.26;58.58
11395;BME280;5753;54.402;10.220;2023-02-02T06:31:52;101438.72;;;11.60;59.06
11395;BME280;5753;54.402;10.220;2023-02-02T06:34:21;101444.59;;;11.92;58.49
11395;BME280;5753;54.402;10.220;2023-02-02T06:36:48;101441.91;;;12.31;57.43
11395;BME280;5753;54.402;10.220;2023-02-02T06:39:14;101449.22;;;12.08;57.95
11395;BME280;5753;54.402;10.220;2023-02-02T06:41:40;101457.47;;;12.34;57.76
11395;BME280;5753;54.402;10.220;2023-02-02T06:44:06;101459.13;;;12.77;56.02
11395;BME280;5753;54.402;10.220;2023-02-02T06:46:32;101474.09;;;12.48;55.96
11395;BME280;5753;54.402;10.220;2023-02-02T06:48:58;101472.69;;;12.19;56.98
11395;BME280;5753;54.402;10.220;2023-02-02T06:51:25;101480.91;;;11.60;59.01
11395;BME280;5753;54.402;10.220;2023-02-02T06:53:51;101486.53;;;12.22;56.52
11395;BME280;5753;54.402;10.220;2023-02-02T06:56:17;101491.13;;;12.36;55.33
11395;BME280;5753;54.402;10.220;2023-02-02T06:58:43;101498.34;;;13.03;54.70
11395;BME280;5753;54.402;10.220;2023-02-02T07:01:11;101501.75;;;12.09;56.68
11395;BME280;5753;54.402;10.220;2023-02-02T07:03:38;101501.50;;;11.21;59.98
11395;BME280;5753;54.402;10.220;2023-02-02T07:06:31;101504.56;;;12.19;57.43
11395;BME280;5753;54.402;10.220;2023-02-02T07:08:57;101511.59;;;13.79;53.16
11395;BME280;5753;54.402;10.220;2023-02-02T07:11:25;101519.00;;;12.10;57.26
11395;BME280;5753;54.402;10.220;2023-02-02T07:13:51;101515.44;;;14.10;51.85
11395;BME280;5753;54.402;10.220;2023-02-02T07:16:17;101532.72;;;12.48;55.72
11395;BME280;5753;54.402;10.220;2023-02-02T07:18:44;101530.66;;;13.25;54.38
11395;BME280;5753;54.402;10.220;2023-02-02T07:21:21;101543.25;;;14.20;51.79
11395;BME280;5753;54.402;10.220;2023-02-02T07:23:47;101532.16;;;12.66;54.87
11395;BME280;5753;54.402;10.220;2023-02-02T07:26:14;101545.03;;;12.63;55.72
11395;BME280;5753;54.402;10.220;2023-02-02T07:28:41;101563.53;;;13.31;54.60
11395;BME280;5753;54.402;10.220;2023-02-02T07:31:25;101569.09;;;13.55;54.14
11395;BME280;5753;54.402;10.220;2023-02-02T07:33:52;101566.19;;;13.93;53.05
11395;BME280;5753;54.402;10.220;2023-02-02T07:36:20;101568.91;;;13.43;54.41
11395;BME280;5753;54.402;10.220;2023-02-02T07:38:49;101579.19;;;13.38;54.24
11395;BME280;5753;54.402;10.220;2023-02-02T07:41:15;101581.72;;;13.91;53.19
11395;BME280;5753;54.402;10.220;2023-02-02T07:43:41;101586.22;;;14.03;52.76
11395;BME280;5753;54.402;10.220;2023-02-02T07:46:09;101594.13;;;13.05;55.00
11395;BME280;5753;54.402;10.220;2023-02-02T07:48:37;101594.41;;;12.75;56.75
11395;BME280;5753;54.402;10.220;2023-02-02T07:51:06;101606.38;;;11.87;58.36
11395;BME280;5753;54.402;10.220;2023-02-02T07:53:33;101603.44;;;12.95;55.39
11395;BME280;5753;54.402;10.220;2023-02-02T07:56:21;101605.66;;;12.33;56.79
11395;BME280;5753;54.402;10.220;2023-02-02T07:58:49;101621.25;;;11.29;59.03
11395;BME280;5753;54.402;10.220;2023-02-02T08:01:16;101612.63;;;11.62;59.21
11395;BME280;5753;54.402;10.220;2023-02-02T08:03:43;101623.81;;;11.97;58.10
11395;BME280;5753;54.402;10.220;2023-02-02T08:08:39;101634.81;;;10.58;60.93
11395;BME280;5753;54.402;10.220;2023-02-02T08:11:08;101636.41;;;12.21;56.54
11395;BME280;5753;54.402;10.220;2023-02-02T08:13:35;101635.31;;;12.50;56.62
11395;BME280;5753;54.402;10.220;2023-02-02T08:16:01;101643.69;;;11.65;58.66
11395;BME280;5753;54.402;10.220;2023-02-02T08:18:27;101650.50;;;11.63;58.28
11395;BME280;5753;54.402;10.220;2023-02-02T08:20:56;101651.03;;;12.59;55.84
11395;BME280;5753;54.402;10.220;2023-02-02T08:23:22;101662.75;;;11.04;58.34
11395;BME280;5753;54.402;10.220;2023-02-02T08:25:52;101658.66;;;11.44;58.53
11395;BME280;5753;54.402;10.220;2023-02-02T08:28:19;101660.66;;;12.27;56.51
11395;BME280;5753;54.402;10.220;2023-02-02T08:30:45;101669.97;;;12.58;55.97
11395;BME280;5753;54.402;10.220;2023-02-02T08:33:11;101671.31;;;11.69;58.09
11395;BME280;5753;54.402;10.220;2023-02-02T08:35:42;101674.97;;;11.77;56.74
11395;BME280;5753;54.402;10.220;2023-02-02T08:38:08;101671.09;;;11.93;57.23
11395;BME280;5753;54.402;10.220;2023-02-02T08:40:35;101679.03;;;13.24;53.99
11395;BME280;5753;54.402;10.220;2023-02-02T08:43:01;101688.81;;;13.39;52.83
11395;BME280;5753;54.402;10.220;2023-02-02T08:45:29;101696.84;;;12.67;55.36
11395;BME280;5753;54.402;10.220;2023-02-02T08:47:55;101702.31;;;12.02;57.10
11395;BME280;5753;54.402;10.220;2023-02-02T08:50:22;101708.78;;;12.60;55.50
11395;BME280;5753;54.402;10.220;2023-02-02T08:52:48;101708.75;;;13.93;52.51
11395;BME280;5753;54.402;10.220;2023-02-02T08:55:14;101720.28;;;13.16;53.74
11395;BME280;5753;54.402;10.220;2023-02-02T08:57:40;101728.09;;;14.14;50.74
11395;BME280;5753;54.402;10.220;2023-02-02T09:00:07;101733.06;;;13.07;53.98
11395;BME280;5753;54.402;10.220;2023-02-02T09:02:33;101739.34;;;14.16;52.07
11395;BME280;5753;54.402;10.220;2023-02-02T09:05:00;101734.03;;;14.65;50.18
11395;BME280;5753;54.402;10.220;2023-02-02T09:07:26;101731.41;;;15.30;49.54
11395;BME280;5753;54.402;10.220;2023-02-02T09:09:52;101734.63;;;15.10;49.57
11395;BME280;5753;54.402;10.220;2023-02-02T09:12:20;101739.84;;;14.47;51.16
11395;BME280;5753;54.402;10.220;2023-02-02T09:14:47;101740.19;;;15.44;48.42
11395;BME280;5753;54.402;10.220;2023-02-02T09:17:13;101753.41;;;12.89;53.16
11395;BME280;5753;54.402;10.220;2023-02-02T09:19:39;101755.00;;;12.84;54.84
11395;BME280;5753;54.402;10.220;2023-02-02T09:22:05;101753.03;;;14.06;51.32
11395;BME280;5753;54.402;10.220;2023-02-02T09:24:31;101761.59;;;14.02;50.64
11395;BME280;5753;54.402;10.220;2023-02-02T09:26:57;101768.41;;;13.47;52.28
11395;BME280;5753;54.402;10.220;2023-02-02T09:29:23;101771.63;;;13.81;52.11
11395;BME280;5753;54.402;10.220;2023-02-02T09:31:50;101786.75;;;11.40;56.46
11395;BME280;5753;54.402;10.220;2023-02-02T09:34:16;101792.25;;;13.75;51.46
11395;BME280;5753;54.402;10.220;2023-02-02T09:36:42;101788.97;;;13.85;51.76
11395;BME280;5753;54.402;10.220;2023-02-02T09:39:10;101802.47;;;15.38;48.81
11395;BME280;5753;54.402;10.220;2023-02-02T09:52:43;101819.94;;;15.50;47.88
11395;BME280;5753;54.402;10.220;2023-02-02T09:55:12;101830.31;;;14.27;50.18
11395;BME280;5753;54.402;10.220;2023-02-02T10:00:33;101840.47;;;13.25;52.09
11395;BME280;5753;54.402;10.220;2023-02-02T10:03:11;101834.06;;;14.44;50.00
11395;BME280;5753;54.402;10.220;2023-02-02T10:08:37;101859.13;;;13.96;51.06
11395;BME280;5753;54.402;10.220;2023-02-02T10:17:39;101875.03;;;14.17;50.13
11395;BME280;5753;54.402;10.220;2023-02-02T10:22:49;101885.16;;;14.50;49.20
11395;BME280;5753;54.402;10.220;2023-02-02T10:25:16;101891.94;;;14.42;50.76
11395;BME280;5753;54.402;10.220;2023-02-02T10:27:54;101898.09;;;13.58;51.37
11395;BME280;5753;54.402;10.220;2023-02-02T10:30:33;101903.06;;;14.36;49.89
11395;BME280;5753;54.402;10.220;2023-02-02T10:33:05;101904.41;;;14.64;49.20
11395;BME280;5753;54.402;10.220;2023-02-02T10:35:41;101902.53;;;15.72;46.88
11395;BME280;5753;54.402;10.220;2023-02-02T10:46:44;101918.63;;;16.16;45.96
11395;BME280;5753;54.402;10.220;2023-02-02T10:49:28;101919.75;;;16.44;45.18
11395;BME280;5753;54.402;10.220;2023-02-02T10:57:11;101931.69;;;16.22;44.53
11395;BME280;5753;54.402;10.220;2023-02-02T10:59:54;101936.44;;;16.64;44.56
11395;BME280;5753;54.402;10.220;2023-02-02T11:02:22;101935.47;;;16.55;44.32
11395;BME280;5753;54.402;10.220;2023-02-02T11:04:48;101935.25;;;16.30;45.23
11395;BME280;5753;54.402;10.220;2023-02-02T11:07:32;101934.88;;;16.85;44.26
11395;BME280;5753;54.402;10.220;2023-02-02T11:09:58;101939.28;;;16.93;43.98
11395;BME280;5753;54.402;10.220;2023-02-02T11:12:33;101931.91;;;16.44;44.09
11395;BME280;5753;54.402;10.220;2023-02-02T11:15:04;101940.06;;;15.97;46.01
11395;BME280;5753;54.402;10.220;2023-02-02T11:17:31;101926.75;;;17.71;42.86
11395;BME280;5753;54.402;10.220;2023-02-02T11:19:58;101938.09;;;17.93;41.97
11395;BME280;5753;54.402;10.220;2023-02-02T11:22:33;101933.72;;;15.70;45.11
11395;BME280;5753;54.402;10.220;2023-02-02T11:25:28;101938.28;;;16.73;44.24
11395;BME280;5753;54.402;10.220;2023-02-02T11:27:52;101942.78;;;16.08;44.39
11395;BME280;5753;54.402;10.220;2023-02-02T11:30:34;101937.28;;;16.60;44.32
11395;BME280;5753;54.402;10.220;2023-02-02T11:33:28;101949.66;;;15.36;45.47
11395;BME280;5753;54.402;10.220;2023-02-02T11:36:00;101950.25;;;14.64;46.76
11395;BME280;5753;54.402;10.220;2023-02-02T11:38:27;101949.88;;;15.51;45.81
11395;BME280;5753;54.402;10.220;2023-02-02T11:41:05;101945.06;;;16.59;44.40
11395;BME280;5753;54.402;10.220;2023-02-02T11:43:47;101944.19;;;17.93;41.78
11395;BME280;5753;54.402;10.220;2023-02-02T11:46:19;101938.19;;;18.08;41.81
11395;BME280;5753;54.402;10.220;2023-02-02T11:48:51;101929.56;;;18.55;41.56
11395;BME280;5753;54.402;10.220;2023-02-02T11:51:24;101931.31;;;18.62;39.98
11395;BME280;5753;54.402;10.220;2023-02-02T11:56:42;101935.63;;;19.12;40.13
11395;BME280;5753;54.402;10.220;2023-02-02T12:04:41;101940.81;;;19.42;39.06
11395;BME280;5753;54.402;10.220;2023-02-02T12:09:50;101943.28;;;17.78;40.75
11395;BME280;5753;54.402;10.220;2023-02-02T12:15:02;101945.19;;;18.35;39.80
11395;BME280;5753;54.402;10.220;2023-02-02T12:17:43;101943.41;;;18.20;40.28
11395;BME280;5753;54.402;10.220;2023-02-02T12:26:15;101943.50;;;18.86;39.83
11395;BME280;5753;54.402;10.220;2023-02-02T12:31:31;101944.16;;;19.87;38.71
11395;BME280;5753;54.402;10.220;2023-02-02T12:36:42;101960.66;;;19.98;38.05
11395;BME280;5753;54.402;10.220;2023-02-02T12:47:48;101956.56;;;18.95;38.07
11395;BME280;5753;54.402;10.220;2023-02-02T13:04:36;101962.38;;;21.20;35.56
11395;BME280;5753;54.402;10.220;2023-02-02T13:09:46;101972.28;;;20.91;35.00
11395;BME280;5753;54.402;10.220;2023-02-02T13:12:18;101976.97;;;21.49;33.25
11395;BME280;5753;54.402;10.220;2023-02-02T13:15:08;101971.34;;;21.82;33.07
11395;BME280;5753;54.402;10.220;2023-02-02T13:17:41;101973.72;;;22.04;32.45
11395;BME280;5753;54.402;10.220;2023-02-02T13:20:37;101980.25;;;21.67;32.44
11395;BME280;5753;54.402;10.220;2023-02-02T13:25:57;101971.06;;;24.05;30.26
11395;BME280;5753;54.402;10.220;2023-02-02T13:28:37;101974.44;;;24.12;29.20
11395;BME280;5753;54.402;10.220;2023-02-02T13:31:16;101975.13;;;24.59;28.48
11395;BME280;5753;54.402;10.220;2023-02-02T13:33:48;101982.59;;;24.41;28.90
11395;BME280;5753;54.402;10.220;2023-02-02T13:36:25;101976.81;;;24.63;28.22
11395;BME280;5753;54.402;10.220;2023-02-02T13:38:57;101976.56;;;25.40;27.78
11395;BME280;5753;54.402;10.220;2023-02-02T13:41:25;101983.09;;;25.27;27.04
11395;BME280;5753;54.402;10.220;2023-02-02T13:44:24;101978.81;;;25.55;26.23
11395;BME280;5753;54.402;10.220;2023-02-02T13:47:08;101984.31;;;24.79;26.79
11395;BME280;5753;54.402;10.220;2023-02-02T13:49:51;101999.03;;;24.11;27.79
11395;BME280;5753;54.402;10.220;2023-02-02T13:55:33;101992.59;;;25.65;25.72
11395;BME280;5753;54.402;10.220;2023-02-02T14:00:52;102003.91;;;24.69;26.78
11395;BME280;5753;54.402;10.220;2023-02-02T14:03:36;102002.88;;;24.75;27.05
11395;BME280;5753;54.402;10.220;2023-02-02T14:08:33;102008.88;;;24.82;26.38
11395;BME280;5753;54.402;10.220;2023-02-02T14:11:01;102011.53;;;24.80;27.02
11395;BME280;5753;54.402;10.220;2023-02-02T14:19:00;102012.31;;;23.14;28.00
11395;BME280;5753;54.402;10.220;2023-02-02T14:26:53;102015.03;;;24.02;26.87
11395;BME280;5753;54.402;10.220;2023-02-02T14:37:27;102026.97;;;23.30;27.65
11395;BME280;5753;54.402;10.220;2023-02-02T14:45:34;102040.22;;;21.15;30.73
11395;BME280;5753;54.402;10.220;2023-02-02T14:56:05;102039.00;;;20.42;32.06
11395;BME280;5753;54.402;10.220;2023-02-02T15:06:49;102045.34;;;19.70;33.08
11395;BME280;5753;54.402;10.220;2023-02-02T15:23:26;102055.84;;;19.29;33.77
11395;BME280;5753;54.402;10.220;2023-02-02T15:29:06;102066.31;;;18.94;33.93
11395;BME280;5753;54.402;10.220;2023-02-02T15:31:44;102071.50;;;18.84;34.06
11395;BME280;5753;54.402;10.220;2023-02-02T15:36:59;102080.97;;;18.47;34.97
11395;BME280;5753;54.402;10.220;2023-02-02T15:41:57;102086.97;;;18.27;35.01
11395;BME280;5753;54.402;10.220;2023-02-02T15:44:44;102091.31;;;18.23;34.99
11395;BME280;5753;54.402;10.220;2023-02-02T15:47:19;102094.69;;;18.02;35.39
11395;BME280;5753;54.402;10.220;2023-02-02T15:49:47;102101.44;;;17.68;36.08
11395;BME280;5753;54.402;10.220;2023-02-02T15:52:26;102096.16;;;17.63;36.36
11395;BME280;5753;54.402;10.220;2023-02-02T15:54:55;102106.44;;;17.45;36.03
11395;BME280;5753;54.402;10.220;2023-02-02T15:57:36;102108.28;;;17.58;35.84
11395;BME280;5753;54.402;10.220;2023-02-02T16:02:54;102103.56;;;17.12;36.63
11395;BME280;5753;54.402;10.220;2023-02-02T16:07:52;102105.63;;;16.63;37.43
11395;BME280;5753;54.402;10.220;2023-02-02T16:10:21;102113.44;;;16.61;37.55
11395;BME280;5753;54.402;10.220;2023-02-02T16:12:47;102111.53;;;16.51;37.15
11395;BME280;5753;54.402;10.220;2023-02-02T16:15:23;102116.56;;;16.36;37.79
11395;BME280;5753;54.402;10.220;2023-02-02T16:18:13;102120.97;;;16.40;37.48
11395;BME280;5753;54.402;10.220;2023-02-02T16:20:44;102125.88;;;16.17;37.63
11395;BME280;5753;54.402;10.220;2023-02-02T16:23:15;102126.84;;;16.24;37.64
11395;BME280;5753;54.402;10.220;2023-02-02T16:25:49;102129.28;;;16.13;38.04
11395;BME280;5753;54.402;10.220;2023-02-02T16:28:17;102137.06;;;16.12;38.57